createdAt,value
2017-12-16T00:00:14.615Z,90.10
2017-12-16T00:02:42.805Z,90.20
2017-12-16T00:05:11.759Z,89.90
2017-12-16T00:07:39.931Z,89.80
2017-12-16T00:10:08.101Z,89.80
2017-12-16T00:12:36.304Z,89.40
2017-12-16T00:15:04.503Z,89.40
2017-12-16T00:17:33.434Z,89.60
2017-12-16T00:20:01.610Z,90.10
2017-12-16T00:22:29.837Z,89.50
2017-12-16T00:24:58.823Z,89.80
2017-12-16T00:27:27.038Z,89.70
2017-12-16T00:29:55.226Z,89.90
2017-12-16T00:32:23.434Z,89.90
2017-12-16T00:34:51.630Z,90.00
2017-12-16T00:37:19.812Z,89.90
2017-12-16T00:39:48.820Z,90.00
2017-12-16T00:42:17.797Z,90.10
2017-12-16T00:44:46.750Z,90.20
2017-12-16T00:47:14.958Z,90.20
2017-12-16T00:49:43.174Z,90.20
2017-12-16T00:52:11.389Z,90.30
2017-12-16T00:54:39.639Z,90.30
2017-12-16T00:57:07.826Z,90.40
2017-12-16T00:59:36.003Z,90.30
2017-12-16T01:02:04.275Z,90.20
2017-12-16T01:04:32.456Z,90.20
2017-12-16T01:07:00.626Z,90.10
2017-12-16T01:09:28.809Z,89.90
2017-12-16T01:11:56.995Z,89.80
2017-12-16T01:14:25.155Z,89.30
2017-12-16T01:16:53.332Z,88.50
2017-12-16T01:19:21.507Z,88.50
2017-12-16T01:21:49.696Z,88.40
2017-12-16T01:24:17.932Z,88.30
2017-12-16T01:26:46.118Z,89.30
2017-12-16T01:29:14.299Z,88.50
2017-12-16T01:31:42.472Z,88.40
2017-12-16T01:37:35.906Z,88.30
2017-12-16T01:40:04.896Z,88.80
2017-12-16T01:42:33.827Z,89.00
2017-12-16T01:45:02.010Z,89.00
2017-12-16T01:47:30.256Z,89.40
2017-12-16T01:49:58.489Z,89.60
2017-12-16T01:52:26.707Z,89.70
2017-12-16T01:54:54.881Z,89.70
2017-12-16T01:57:23.865Z,89.70
2017-12-16T01:59:52.809Z,90.00
2017-12-16T02:02:21.011Z,89.90
2017-12-16T02:04:49.191Z,90.10
2017-12-16T02:07:17.405Z,90.10
2017-12-16T02:09:45.636Z,90.00
2017-12-16T02:12:13.824Z,90.30
2017-12-16T02:14:42.017Z,90.40
2017-12-16T02:17:11.033Z,90.50
2017-12-16T02:19:39.255Z,90.80
2017-12-16T02:22:07.543Z,90.60
2017-12-16T02:24:35.750Z,90.60
2017-12-16T02:27:03.957Z,90.70
2017-12-16T02:29:32.177Z,90.80
2017-12-16T02:32:01.182Z,90.90
2017-12-16T02:34:30.126Z,90.80
2017-12-16T02:36:58.341Z,90.70
2017-12-16T02:39:27.306Z,90.80
2017-12-16T02:41:55.481Z,90.80
2017-12-16T02:44:23.660Z,90.90
2017-12-16T02:46:51.875Z,90.90
2017-12-16T02:49:20.059Z,91.00
2017-12-16T02:51:48.242Z,91.10
2017-12-16T02:54:16.421Z,91.10
2017-12-16T02:56:44.616Z,91.20
2017-12-16T02:59:13.626Z,91.20
2017-12-16T03:01:41.834Z,91.20
2017-12-16T03:04:10.276Z,91.30
2017-12-16T03:06:38.484Z,91.30
2017-12-16T03:09:07.450Z,91.30
2017-12-16T03:11:35.656Z,91.30
2017-12-16T03:14:04.608Z,91.40
2017-12-16T03:16:32.805Z,91.40
2017-12-16T03:19:00.994Z,91.50
2017-12-16T03:21:29.942Z,91.50
2017-12-16T03:23:58.131Z,91.50
2017-12-16T03:26:26.411Z,91.50
2017-12-16T04:50:52.295Z,91.40
2017-12-16T04:53:20.482Z,92.50
2017-12-16T04:55:48.670Z,92.60
2017-12-16T04:58:17.632Z,92.60
2017-12-16T05:00:46.655Z,92.60
2017-12-16T05:03:14.843Z,92.60
2017-12-16T05:05:43.795Z,92.40
2017-12-16T05:08:11.970Z,92.50
2017-12-16T05:10:40.186Z,92.30
2017-12-16T05:13:09.194Z,92.30
2017-12-16T05:15:37.407Z,92.30
2017-12-16T05:18:06.369Z,92.30
2017-12-16T05:20:34.550Z,92.30
2017-12-16T05:23:02.816Z,92.30
2017-12-16T05:25:30.985Z,92.30
2017-12-16T05:27:59.170Z,92.30
2017-12-16T05:30:27.419Z,92.30
2017-12-16T05:32:56.392Z,92.30
2017-12-16T05:35:24.591Z,92.20
2017-12-16T05:37:53.555Z,92.20
2017-12-16T05:40:21.740Z,92.20
2017-12-16T05:42:49.936Z,92.20
2017-12-16T05:45:18.871Z,92.20
2017-12-16T05:47:47.065Z,92.20
2017-12-16T05:50:15.291Z,92.20
2017-12-16T05:52:43.502Z,92.20
2017-12-16T05:55:11.680Z,92.20
2017-12-16T05:57:39.864Z,92.20
2017-12-16T06:00:08.080Z,92.20
2017-12-16T06:02:37.049Z,92.20
2017-12-16T06:05:05.243Z,92.20
2017-12-16T06:07:34.180Z,92.20
2017-12-16T06:10:02.351Z,92.20
2017-12-16T06:12:30.542Z,92.20
2017-12-16T06:14:58.734Z,92.20
2017-12-16T06:17:26.941Z,92.30
2017-12-16T06:19:55.890Z,92.30
2017-12-16T06:22:24.090Z,92.30
2017-12-16T06:24:52.278Z,92.30
2017-12-16T06:27:21.238Z,92.40
2017-12-16T06:29:49.427Z,92.40
2017-12-16T06:32:17.615Z,92.40
2017-12-16T06:34:46.563Z,92.50
2017-12-16T06:37:14.786Z,92.50
2017-12-16T06:39:43.741Z,92.50
2017-12-16T06:42:11.942Z,92.50
2017-12-16T06:44:40.139Z,92.50
2017-12-16T06:47:09.073Z,92.60
2017-12-16T06:49:37.247Z,92.60
2017-12-16T06:52:05.482Z,92.50
2017-12-16T06:54:34.432Z,92.50
2017-12-16T06:57:02.650Z,92.40
2017-12-16T06:59:31.606Z,92.30
2017-12-16T07:01:59.770Z,92.30
2017-12-16T07:04:27.967Z,92.20
2017-12-16T07:06:56.130Z,92.10
2017-12-16T07:09:24.295Z,92.10
2017-12-16T07:11:52.478Z,92.10
2017-12-16T07:14:20.673Z,92.00
2017-12-16T07:16:49.611Z,91.90
2017-12-16T07:19:17.785Z,91.90
2017-12-16T07:21:45.964Z,91.80
2017-12-16T07:24:14.136Z,91.70
2017-12-16T07:26:42.298Z,91.60
2017-12-16T07:29:10.472Z,91.60
2017-12-16T07:31:38.638Z,91.60
2017-12-16T07:34:06.828Z,91.50
2017-12-16T07:36:35.012Z,91.40
2017-12-16T07:39:03.226Z,91.40
2017-12-16T07:41:31.395Z,91.40
2017-12-16T07:43:59.571Z,91.40
2017-12-16T07:46:27.746Z,91.30
2017-12-16T07:48:55.919Z,91.20
2017-12-16T07:51:24.120Z,91.00
2017-12-16T07:53:53.096Z,90.90
2017-12-16T07:56:21.273Z,90.90
2017-12-16T07:58:49.496Z,91.10
2017-12-16T08:01:17.664Z,91.30
2017-12-16T08:03:45.831Z,90.70
2017-12-16T08:06:14.048Z,90.60
2017-12-16T08:08:42.194Z,90.40
2017-12-16T08:11:10.357Z,90.50
2017-12-16T08:13:38.518Z,90.40
2017-12-16T08:16:07.460Z,89.80
2017-12-16T08:18:35.633Z,89.70
2017-12-16T08:21:03.819Z,89.60
2017-12-16T08:23:32.030Z,89.20
2017-12-16T08:26:00.974Z,89.00
2017-12-16T08:28:29.162Z,89.00
2017-12-16T08:30:57.360Z,88.70
2017-12-16T08:33:26.311Z,88.20
2017-12-16T08:35:54.483Z,88.20
2017-12-16T08:38:22.661Z,88.20
2017-12-16T08:40:50.829Z,87.70
2017-12-16T08:43:19.009Z,87.50
2017-12-16T08:45:47.216Z,87.20
2017-12-16T08:48:15.398Z,87.20
2017-12-16T08:50:44.340Z,87.10
2017-12-16T08:53:12.513Z,87.10
2017-12-16T08:55:40.690Z,86.90
2017-12-16T08:58:08.870Z,86.60
2017-12-16T09:00:37.036Z,86.40
2017-12-16T09:03:05.216Z,86.20
2017-12-16T09:05:33.396Z,85.80
2017-12-16T09:08:01.574Z,85.50
2017-12-16T09:10:29.763Z,84.90
2017-12-16T09:12:57.947Z,84.90
2017-12-16T09:15:26.122Z,84.60
2017-12-16T09:17:54.298Z,84.10
2017-12-16T09:20:22.507Z,83.80
2017-12-16T09:22:50.680Z,84.50
2017-12-16T09:25:19.611Z,84.20
2017-12-16T09:27:47.866Z,84.20
2017-12-16T09:30:16.186Z,84.00
2017-12-16T09:32:44.363Z,83.30
2017-12-16T09:35:12.560Z,83.20
2017-12-16T09:37:41.516Z,82.30
2017-12-16T09:40:09.710Z,82.40
2017-12-16T09:42:38.035Z,82.30
2017-12-16T09:45:06.265Z,82.30
2017-12-16T09:47:34.456Z,81.80
2017-12-16T09:50:03.452Z,81.10
2017-12-16T09:52:32.402Z,80.80
2017-12-16T09:55:00.578Z,80.80
2017-12-16T09:57:28.781Z,80.50
2017-12-16T09:59:57.011Z,80.10
2017-12-16T10:02:25.198Z,79.70
2017-12-16T10:04:53.397Z,79.10
2017-12-16T10:07:21.564Z,78.00
2017-12-16T10:09:49.738Z,75.90
2017-12-16T10:12:17.910Z,74.70
2017-12-16T10:14:46.146Z,74.20
2017-12-16T10:17:14.321Z,73.60
2017-12-16T10:19:42.492Z,73.20
2017-12-16T10:22:10.707Z,73.00
2017-12-16T10:24:38.884Z,72.60
2017-12-16T10:27:07.066Z,72.10
2017-12-16T10:29:35.309Z,71.30
2017-12-16T10:32:03.493Z,70.10
2017-12-16T10:34:31.670Z,69.60
2017-12-16T10:36:59.846Z,69.40
2017-12-16T10:39:28.032Z,68.20
2017-12-16T10:41:57.004Z,62.00
2017-12-16T10:44:25.181Z,61.90
2017-12-16T10:46:53.362Z,59.60
2017-12-16T10:49:21.580Z,59.00
2017-12-16T10:51:50.530Z,53.90
2017-12-16T10:54:18.832Z,53.70
2017-12-16T10:56:47.006Z,48.50
2017-12-16T10:59:15.193Z,43.20
2017-12-16T11:01:43.377Z,37.00
2017-12-16T11:04:12.522Z,33.40
2017-12-16T11:06:40.747Z,32.70
2017-12-16T11:09:09.710Z,35.40
2017-12-16T11:11:37.894Z,35.40
2017-12-16T11:14:06.210Z,35.90
2017-12-16T11:16:35.186Z,38.70
2017-12-16T11:19:04.150Z,40.60
2017-12-16T11:21:32.327Z,40.60
2017-12-16T11:24:00.499Z,41.80
2017-12-16T11:26:28.730Z,43.10
2017-12-16T11:28:56.946Z,44.50
2017-12-16T11:31:25.126Z,45.40
2017-12-16T11:33:53.306Z,46.10
2017-12-16T11:36:21.864Z,47.10
2017-12-16T11:38:50.049Z,48.00
2017-12-16T11:41:18.223Z,48.00
2017-12-16T11:43:46.398Z,48.90
2017-12-16T11:46:14.617Z,48.80
2017-12-16T11:48:43.568Z,48.90
2017-12-16T11:51:11.751Z,48.80
2017-12-16T11:53:39.939Z,49.00
2017-12-16T11:56:08.871Z,50.20
2017-12-16T11:58:37.049Z,50.20
2017-12-16T12:01:05.266Z,51.00
2017-12-16T12:03:33.429Z,54.00
2017-12-16T12:06:05.276Z,55.40
2017-12-16T12:08:36.058Z,56.10
2017-12-16T12:11:04.234Z,56.10
2017-12-16T12:13:32.418Z,54.00
2017-12-16T12:16:12.393Z,48.00
2017-12-16T13:40:39.025Z,42.40
2017-12-16T13:43:07.207Z,41.70
2017-12-16T13:45:35.447Z,43.00
2017-12-16T13:48:03.616Z,44.10
2017-12-16T13:50:32.555Z,46.90
2017-12-16T13:53:00.738Z,46.80
2017-12-16T13:55:28.911Z,50.00
2017-12-16T13:57:57.127Z,51.50
2017-12-16T14:00:26.057Z,54.00
2017-12-16T14:02:54.223Z,53.90
2017-12-16T14:05:22.379Z,55.20
2017-12-16T14:07:50.539Z,55.80
2017-12-16T14:10:19.477Z,55.70
2017-12-16T14:12:47.638Z,55.60
2017-12-16T14:15:15.913Z,55.40
2017-12-16T14:17:44.065Z,55.90
2017-12-16T14:20:13.036Z,58.00
2017-12-16T14:22:41.998Z,59.50
2017-12-16T14:25:10.207Z,59.30
2017-12-16T14:27:39.162Z,62.40
2017-12-16T14:30:07.335Z,62.30
2017-12-16T14:32:35.498Z,63.20
2017-12-16T14:35:03.667Z,64.70
2017-12-16T14:37:31.836Z,65.50
2017-12-16T14:40:00.018Z,66.20
2017-12-16T14:42:28.206Z,67.00
2017-12-16T14:44:56.378Z,67.90
2017-12-16T14:47:24.622Z,68.60
2017-12-16T14:49:52.811Z,69.40
2017-12-16T14:52:20.996Z,70.40
2017-12-16T14:54:49.202Z,71.30
2017-12-16T14:57:17.414Z,71.60
2017-12-16T14:59:46.400Z,74.00
2017-12-16T15:02:14.555Z,73.90
2017-12-16T15:04:42.741Z,74.70
2017-12-16T15:07:11.714Z,75.20
2017-12-16T15:09:39.884Z,74.40
2017-12-16T15:12:08.064Z,74.60
2017-12-16T15:14:36.230Z,75.30
2017-12-16T15:17:04.422Z,75.70
2017-12-16T15:19:32.611Z,75.80
2017-12-16T15:22:01.651Z,76.40
2017-12-16T15:24:29.889Z,76.30
2017-12-16T15:26:58.814Z,76.60
2017-12-16T15:29:26.993Z,76.50
2017-12-16T15:31:55.173Z,77.00
2017-12-16T15:34:23.354Z,77.30
2017-12-16T15:36:51.536Z,77.60
2017-12-16T15:39:19.751Z,78.30
2017-12-16T15:41:48.699Z,78.90
2017-12-16T15:44:16.905Z,78.80
2017-12-16T15:46:45.872Z,79.60
2017-12-16T15:49:14.077Z,79.60
2017-12-16T15:51:43.020Z,80.20
2017-12-16T15:54:11.263Z,80.20
2017-12-16T15:56:39.436Z,80.60
2017-12-16T15:59:07.660Z,81.00
2017-12-16T16:01:36.699Z,81.60
2017-12-16T16:04:05.654Z,82.00
2017-12-16T16:06:33.855Z,81.90
2017-12-16T16:09:02.089Z,81.80
2017-12-16T16:11:30.280Z,81.40
2017-12-16T16:13:58.462Z,81.40
2017-12-16T16:16:26.647Z,80.80
2017-12-16T16:18:54.820Z,80.70
2017-12-16T16:21:23.024Z,80.90
2017-12-16T16:23:51.989Z,81.40
2017-12-16T17:48:17.841Z,81.10
2017-12-16T17:50:46.012Z,87.60
2017-12-16T17:53:14.190Z,87.40
2017-12-16T17:55:42.431Z,87.70
2017-12-16T17:58:10.637Z,87.50
2017-12-16T18:00:38.833Z,87.10
2017-12-16T18:03:07.799Z,86.40
2017-12-16T18:05:35.998Z,86.40
2017-12-16T18:08:05.005Z,86.40
2017-12-16T18:10:33.947Z,86.40
2017-12-16T18:13:02.143Z,86.40
2017-12-16T18:15:30.641Z,86.10
2017-12-16T18:17:59.610Z,86.50
2017-12-16T18:20:27.814Z,86.40
2017-12-16T18:22:56.786Z,85.40
2017-12-16T18:25:24.990Z,85.20
2017-12-16T18:27:53.217Z,85.00
2017-12-16T18:30:21.395Z,83.40
2017-12-16T18:32:49.594Z,82.50
2017-12-16T18:35:18.592Z,81.50
2017-12-16T18:37:47.630Z,81.20
2017-12-16T18:40:15.815Z,81.20
2017-12-16T18:42:44.012Z,81.40
2017-12-16T18:45:12.194Z,81.70
2017-12-16T18:47:40.391Z,81.70
2017-12-16T18:50:09.401Z,81.70
2017-12-16T18:52:37.581Z,81.50
2017-12-16T18:55:05.784Z,82.00
2017-12-16T18:57:34.007Z,82.70
2017-12-16T19:00:02.938Z,83.00
2017-12-16T19:02:31.131Z,82.90
2017-12-16T19:04:59.310Z,83.50
2017-12-16T19:07:27.484Z,83.70
2017-12-16T19:09:55.664Z,83.70
2017-12-16T19:12:23.859Z,83.80
2017-12-16T19:14:52.031Z,83.50
2017-12-16T19:17:20.226Z,84.40
2017-12-16T19:19:49.230Z,83.90
2017-12-16T19:22:17.402Z,83.80
2017-12-16T19:24:46.426Z,84.20
2017-12-16T19:27:14.634Z,84.20
2017-12-16T19:29:42.842Z,84.30
2017-12-16T19:32:11.804Z,84.40
2017-12-16T19:34:39.981Z,84.20
2017-12-16T19:37:08.183Z,84.10
2017-12-16T19:39:37.142Z,84.40
2017-12-16T19:42:05.339Z,84.40
2017-12-16T19:44:33.571Z,84.60
2017-12-16T19:47:01.780Z,84.80
2017-12-16T19:49:29.963Z,85.20
2017-12-16T19:51:58.144Z,85.20
2017-12-16T19:54:27.099Z,85.30
2017-12-16T19:56:55.293Z,85.20
2017-12-16T19:59:23.476Z,85.50
2017-12-16T20:01:51.655Z,85.70
2017-12-16T20:04:19.851Z,85.60
2017-12-16T20:06:48.787Z,85.60
2017-12-16T20:09:16.973Z,85.50
2017-12-16T20:11:45.158Z,85.60
2017-12-16T20:14:13.341Z,85.80
2017-12-16T20:16:42.473Z,85.90
2017-12-16T20:19:10.638Z,86.60
2017-12-16T20:21:38.872Z,85.70
2017-12-16T20:24:07.062Z,85.90
2017-12-16T20:26:35.270Z,85.80
2017-12-16T20:29:03.464Z,86.20
2017-12-16T20:31:32.412Z,86.30
2017-12-16T20:34:00.629Z,86.30
2017-12-16T20:36:28.878Z,86.40
2017-12-16T20:38:57.059Z,86.40
2017-12-16T20:41:25.241Z,86.40
2017-12-16T20:43:53.500Z,86.50
2017-12-16T20:46:21.704Z,86.10
2017-12-16T20:48:49.900Z,86.40
2017-12-16T20:51:18.861Z,87.00
2017-12-16T20:53:47.070Z,86.90
2017-12-16T20:56:16.131Z,87.40
2017-12-16T20:58:44.350Z,87.20
2017-12-16T21:01:12.709Z,87.10
2017-12-16T21:03:41.711Z,87.10
2017-12-16T21:06:10.799Z,87.30
2017-12-16T21:08:39.118Z,87.40
2017-12-16T21:11:07.345Z,87.60
2017-12-16T21:13:36.302Z,87.70
2017-12-16T21:16:04.538Z,87.70
2017-12-16T21:18:32.787Z,87.60
2017-12-16T21:21:01.007Z,87.90
2017-12-16T21:23:29.208Z,88.40
2017-12-16T21:25:58.217Z,88.40
2017-12-16T21:28:26.425Z,88.30
2017-12-16T21:30:55.400Z,89.70
2017-12-16T21:33:23.579Z,89.60
2017-12-16T21:35:51.753Z,89.50
2017-12-16T21:38:19.939Z,89.20
2017-12-16T21:40:48.101Z,88.80
2017-12-16T21:43:16.386Z,88.30
2017-12-16T21:45:44.577Z,87.90
2017-12-16T21:48:12.773Z,87.20
2017-12-16T21:50:40.951Z,87.10
2017-12-16T21:53:09.174Z,86.90
2017-12-16T21:55:37.351Z,87.00
2017-12-16T21:58:05.569Z,86.70
2017-12-16T22:00:33.739Z,86.30
2017-12-16T22:03:01.914Z,86.00
2017-12-16T22:05:30.091Z,85.50
2017-12-16T22:07:58.287Z,85.20
2017-12-16T22:10:26.476Z,84.50
2017-12-16T22:12:55.457Z,84.10
2017-12-16T22:15:23.638Z,84.10
2017-12-16T22:17:52.611Z,83.80
2017-12-16T22:20:20.812Z,83.70
2017-12-16T22:22:49.769Z,84.00
2017-12-16T22:25:17.987Z,83.90
2017-12-16T22:27:46.935Z,84.40
2017-12-16T22:30:15.146Z,84.30
2017-12-16T22:32:44.095Z,84.10
2017-12-16T22:35:12.290Z,84.00
2017-12-16T22:37:40.517Z,84.40
2017-12-16T22:40:08.746Z,84.90
2017-12-16T22:42:36.965Z,84.90
2017-12-16T22:45:05.159Z,85.10
2017-12-16T22:47:33.332Z,85.00
2017-12-16T22:50:01.541Z,84.60
2017-12-16T22:52:29.766Z,84.90
2017-12-16T22:54:57.992Z,85.20
2017-12-16T22:57:26.208Z,85.40
2017-12-16T22:59:54.428Z,85.40
2017-12-16T23:02:22.651Z,85.40
2017-12-16T23:04:51.687Z,85.20
2017-12-16T23:07:19.902Z,85.20
2017-12-16T23:09:48.126Z,85.30
2017-12-16T23:12:16.508Z,84.70
2017-12-16T23:14:44.727Z,85.30
2017-12-16T23:17:13.065Z,85.50
2017-12-16T23:19:41.324Z,85.40
2017-12-16T23:22:09.551Z,85.30
2017-12-16T23:24:37.745Z,85.40
2017-12-16T23:27:06.717Z,85.50
2017-12-16T23:29:34.962Z,85.50
2017-12-16T23:32:03.173Z,85.40
2017-12-16T23:34:31.407Z,85.50
2017-12-16T23:36:59.632Z,85.70
2017-12-16T23:39:27.845Z,85.50
2017-12-16T23:41:56.071Z,85.40
2017-12-16T23:44:24.352Z,85.80
2017-12-16T23:46:52.579Z,85.90
2017-12-16T23:49:20.801Z,85.70
2017-12-16T23:51:48.973Z,85.90
2017-12-16T23:54:17.259Z,86.40
2017-12-16T23:56:45.467Z,85.90
2017-12-16T23:59:13.703Z,85.80
